Time;durP1;ratioP1;P1;durP2;ratioP2;P2;SDS_P1;SDS_P2;PMS_P1;PMS_P2;Temp;Humidity;BMP_temperature;BMP_pressure;BME280_temperature;BME280_humidity;BME280_pressure;Samples;Min_cycle;Max_cycle;Signal;HPM_P1;HPM_P2
2021/03/20 00:01:01;;;;;;;79.90;50.35;;;103.10;1920.00;;;;;;5054713;28;20044;-64
2021/03/20 00:03:27;;;;;;;72.97;48.30;;;103.00;1920.00;;;;;;5072581;28;20599;-63
2021/03/20 00:05:53;;;;;;;71.15;47.47;;;102.90;1945.60;;;;;;5072536;28;20483;-65
2021/03/20 00:08:22;;;;;;;78.00;51.90;;;103.10;1920.00;;;;;;5072774;28;20070;-65
2021/03/20 00:10:48;;;;;;;85.70;50.50;;;128.00;1920.00;;;;;;5072185;28;20028;-65
2021/03/20 00:13:16;;;;;;;72.88;43.33;;;128.20;1894.40;;;;;;5054125;28;20348;-62
2021/03/20 00:15:42;;;;;;;110.20;59.35;;;103.30;1868.80;;;;;;5051962;28;20400;-61
2021/03/20 00:18:09;;;;;;;76.32;42.13;;;103.20;1894.40;;;;;;5051712;28;20025;-62
2021/03/20 00:20:38;;;;;;;67.10;39.03;;;103.10;1920.00;;;;;;5051486;28;20060;-62
2021/03/20 00:23:05;;;;;;;60.58;40.85;;;102.80;1945.60;;;;;;5051668;28;20033;-62
2021/03/20 00:25:32;;;;;;;55.22;35.75;;;102.90;1920.00;;;;;;5051534;28;20025;-62
2021/03/20 00:27:58;;;;;;;60.42;39.38;;;102.80;1945.60;;;;;;5051539;28;20017;-63
2021/03/20 00:30:24;;;;;;;61.60;38.55;;;102.60;1945.60;;;;;;5051348;28;20033;-62
2021/03/20 00:32:50;;;;;;;73.13;43.65;;;102.80;1920.00;;;;;;5032381;28;20178;-64
2021/03/20 00:35:17;;;;;;;74.53;46.17;;;102.70;1945.60;;;;;;5051423;28;20028;-62
2021/03/20 00:37:44;;;;;;;79.18;49.70;;;102.70;1945.60;;;;;;5051375;28;20025;-62
2021/03/20 00:40:13;;;;;;;68.45;41.95;;;102.80;1920.00;;;;;;5050698;28;20049;-61
2021/03/20 00:42:38;;;;;;;61.40;40.28;;;102.80;1920.00;;;;;;5050970;28;20064;-62
2021/03/20 00:45:06;;;;;;;55.00;36.65;;;102.60;1945.60;;;;;;5070827;28;20020;-61
2021/03/20 00:47:32;;;;;;;56.40;38.00;;;102.70;1945.60;;;;;;5071416;28;20133;-62
2021/03/20 00:50:02;;;;;;;59.38;41.10;;;102.80;1920.00;;;;;;5071369;28;20071;-62
2021/03/20 00:52:28;;;;;;;56.97;36.50;;;103.00;1894.40;;;;;;5071586;28;20028;-62
2021/03/20 00:54:53;;;;;;;54.10;35.17;;;103.10;1894.40;;;;;;5071353;28;20024;-62
2021/03/20 00:57:19;;;;;;;56.78;39.58;;;103.30;1868.80;;;;;;5071372;28;20050;-62
2021/03/20 00:59:47;;;;;;;73.72;48.78;;;128.00;1868.80;;;;;;5071431;28;20067;-61
2021/03/20 01:02:13;;;;;;;81.90;52.70;;;103.30;1843.20;;;;;;5071611;28;20019;-63
2021/03/20 01:04:39;;;;;;;89.25;54.30;;;103.30;1843.20;;;;;;5071646;28;20360;-62
2021/03/20 01:07:04;;;;;;;86.45;57.35;;;128.00;1868.80;;;;;;5071911;28;20099;-62
2021/03/20 01:09:32;;;;;;;93.68;62.15;;;103.30;1843.20;;;;;;5071340;28;20029;-62
2021/03/20 01:11:58;;;;;;;96.00;62.88;;;128.00;1868.80;;;;;;5066867;28;20104;-62
2021/03/20 01:14:23;;;;;;;105.47;70.28;;;128.10;1843.20;;;;;;5059720;28;20035;-64
2021/03/20 01:16:49;;;;;;;107.10;66.13;;;128.10;1817.60;;;;;;5071091;28;20024;-63
2021/03/20 01:19:15;;;;;;;106.82;72.47;;;128.20;1817.60;;;;;;5071264;28;20025;-64
2021/03/20 01:21:41;;;;;;;109.07;70.75;;;;;;;;;;5052553;28;20494;-61
2021/03/20 01:24:09;;;;;;;119.78;72.60;;;;;;;;;;5072945;28;20031;-62
2021/03/20 01:26:35;;;;;;;123.78;76.78;;;128.30;1766.40;;;;;;5075089;28;20360;-62
2021/03/20 01:29:00;;;;;;;110.00;69.60;;;128.40;1766.40;;;;;;5074848;28;20035;-61
2021/03/20 01:31:26;;;;;;;112.57;70.97;;;128.20;1792.00;;;;;;5057040;28;20025;-62
2021/03/20 01:33:52;;;;;;;108.97;67.25;;;128.00;1817.60;;;;;;5075159;28;20027;-62
2021/03/20 01:36:18;;;;;;;118.05;72.05;;;103.10;1843.20;;;;;;5074635;28;20062;-61
2021/03/20 01:38:44;;;;;;;121.07;77.32;;;103.20;1817.60;;;;;;5074773;28;20479;-61
2021/03/20 01:41:17;;;;;;;124.18;76.50;;;128.00;1843.20;;;;;;5073764;28;20036;-61
2021/03/20 01:43:43;;;;;;;110.00;69.95;;;103.30;1817.60;;;;;;5062413;28;20086;-63
2021/03/20 01:46:41;;;;;;;100.55;65.07;;;128.10;1817.60;;;;;;5075144;28;20468;-63
2021/03/20 01:49:22;;;;;;;103.57;66.55;;;;;;;;;;5055757;28;20060;-63
2021/03/20 01:52:22;;;;;;;97.35;61.75;;;102.90;1843.20;;;;;;5075029;28;20016;-63
2021/03/20 01:54:51;;;;;;;80.95;54.35;;;102.90;1843.20;;;;;;4993584;28;20483;-62
2021/03/20 01:57:22;;;;;;;87.85;49.15;;;102.80;1843.20;;;;;;4993483;28;20041;-61
2021/03/20 01:59:48;;;;;;;60.17;39.35;;;102.90;1843.20;;;;;;4993402;28;20065;-63
2021/03/20 02:02:14;;;;;;;55.58;32.60;;;;;;;;;;4993743;28;20118;-62
2021/03/20 02:04:40;;;;;;;62.42;36.60;;;102.50;1843.20;;;;;;4981490;28;20027;-61
2021/03/20 02:07:06;;;;;;;52.53;33.03;;;102.40;1894.40;;;;;;4991762;28;20393;-64
2021/03/20 02:09:34;;;;;;;49.78;31.73;;;102.40;1894.40;;;;;;4993479;28;20112;-65
2021/03/20 02:12:20;;;;;;;62.83;35.50;;;77.70;1868.80;;;;;;4993131;28;20039;-63
2021/03/20 02:14:57;;;;;;;69.65;39.85;;;102.60;1868.80;;;;;;4993352;28;20038;-64
2021/03/20 02:17:31;;;;;;;68.38;38.85;;;102.60;1843.20;;;;;;4993353;28;20110;-64
2021/03/20 02:20:33;;;;;;;48.55;31.02;;;102.70;1843.20;;;;;;4993191;28;20501;-64
2021/03/20 02:23:25;;;;;;;;;;;102.70;1843.20;;;;;;4993895;28;20490;-65
2021/03/20 02:25:57;;;;;;;49.87;32.20;;;102.70;1817.60;;;;;;4978220;28;20034;-65
2021/03/20 02:28:41;;;;;;;;;;;77.70;1868.80;;;;;;4993691;28;20280;-65
2021/03/20 02:31:41;;;;;;;58.97;38.50;;;102.40;1868.80;;;;;;5014859;28;19908;-64
2021/03/20 02:34:13;;;;;;;77.70;46.50;;;102.40;1894.40;;;;;;5073816;28;20024;-65
2021/03/20 02:37:02;;;;;;;;;;;77.70;1894.40;;;;;;5075007;28;20017;-65
2021/03/20 02:39:51;;;;;;;84.55;51.30;;;77.70;1868.80;;;;;;5073928;28;19920;-65
2021/03/20 02:42:31;;;;;;;60.13;38.05;;;102.40;1868.80;;;;;;5064111;28;20017;-65
2021/03/20 02:45:04;;;;;;;49.95;32.30;;;102.40;1868.80;;;;;;5072263;28;20028;-64
2021/03/20 02:47:43;;;;;;;48.70;31.85;;;77.60;1894.40;;;;;;5074221;28;20021;-65
2021/03/20 02:50:19;;;;;;;61.13;37.65;;;77.70;1894.40;;;;;;5074016;28;20469;-64
2021/03/20 02:52:51;;;;;;;52.22;34.17;;;77.70;1894.40;;;;;;5074451;28;20016;-65
2021/03/20 02:55:33;;;;;;;41.58;28.35;;;77.70;1843.20;;;;;;5074000;28;20071;-65
2021/03/20 02:58:07;;;;;;;58.40;35.92;;;77.60;1868.80;;;;;;5074169;28;20411;-65
2021/03/20 03:00:50;;;;;;;48.60;29.63;;;77.50;1894.40;;;;;;5046657;28;20033;-64
2021/03/20 03:03:18;;;;;;;44.03;30.00;;;77.50;1868.80;;;;;;5073888;28;20025;-64
2021/03/20 03:05:48;;;;;;;51.13;33.25;;;;;;;;;;5073736;28;20493;-62
2021/03/20 03:08:23;;;;;;;55.88;35.53;;;77.10;1945.60;;;;;;5074062;28;20036;-63
2021/03/20 03:10:54;;;;;;;56.83;34.42;;;77.30;1920.00;;;;;;5047465;28;20031;-63
2021/03/20 03:13:24;;;;;;;41.00;27.25;;;77.30;1920.00;;;;;;5073983;28;20024;-63
2021/03/20 03:15:52;;;;;;;39.20;27.65;;;;;;;;;;5046274;28;20027;-63
2021/03/20 03:18:22;;;;;;;33.83;23.92;;;;;;;;;;5073849;28;20437;-63
2021/03/20 03:20:51;;;;;;;47.03;30.15;;;;;;;;;;5073225;28;20036;-63
2021/03/20 03:23:18;;;;;;;39.72;27.33;;;;;;;;;;5073545;28;20024;-63
2021/03/20 03:25:45;;;;;;;39.92;26.92;;;;;;;;;;5073099;28;20044;-63
2021/03/20 03:28:13;;;;;;;47.10;30.52;;;;;;;;;;5073404;28;20024;-64
2021/03/20 03:30:40;;;;;;;46.00;31.10;;;;;;;;;;5073217;28;20028;-63
2021/03/20 03:33:06;;;;;;;37.40;25.35;;;;;;;;;;5073342;28;20024;-63
2021/03/20 03:35:37;;;;;;;39.28;27.23;;;52.10;1920.00;;;;;;5073048;28;20097;-62
2021/03/20 03:38:24;;;;;;;42.63;25.92;;;76.90;1920.00;;;;;;5073149;28;20037;-63
2021/03/20 03:41:11;;;;;;;44.15;28.02;;;77.10;1894.40;;;;;;5072998;28;20037;-63
2021/03/20 03:43:37;;;;;;;47.30;30.67;;;77.50;1843.20;;;;;;5047334;28;20025;-62
2021/03/20 03:46:03;;;;;;;49.22;28.95;;;77.70;1817.60;;;;;;5072252;28;20021;-63
2021/03/20 03:48:29;;;;;;;43.22;27.60;;;77.30;1868.80;;;;;;5072914;28;20024;-63
2021/03/20 03:51:11;;;;;;;40.63;26.58;;;77.20;1868.80;;;;;;5072910;28;20543;-65
2021/03/20 03:53:37;;;;;;;;;;;77.00;1894.40;;;;;;5073495;28;20044;-63
2021/03/20 03:56:18;;;;;;;40.95;26.13;;;77.20;1868.80;;;;;;5073007;28;20283;-64
2021/03/20 03:58:55;;;;;;;41.20;27.05;;;77.40;1843.20;;;;;;5072731;28;20047;-64
2021/03/20 04:01:31;;;;;;;37.42;25.33;;;77.20;1868.80;;;;;;5072745;28;20043;-64
2021/03/20 04:04:02;;;;;;;44.05;27.70;;;77.20;1868.80;;;;;;5045633;28;20021;-66
2021/03/20 04:06:31;;;;;;;;;;;77.30;1868.80;;;;;;5073477;28;20029;-66
2021/03/20 04:09:20;;;;;;;37.05;24.52;;;77.00;1868.80;;;;;;5072672;28;19935;-66
2021/03/20 04:11:59;;;;;;;40.95;26.67;;;77.00;1868.80;;;;;;5072490;28;20086;-66
2021/03/20 04:14:47;;;;;;;49.03;29.60;;;76.90;1894.40;;;;;;5072783;28;20017;-65
2021/03/20 04:17:23;;;;;;;47.58;27.15;;;77.40;1843.20;;;;;;5072505;28;20032;-66
2021/03/20 04:20:27;;;;;;;38.38;24.42;;;77.30;1817.60;;;;;;5072522;28;20020;-66
2021/03/20 04:23:01;;;;;;;46.05;26.90;;;76.90;1894.40;;;;;;4991018;28;20503;-66
2021/03/20 04:25:33;;;;;;;36.33;22.23;;;77.10;1868.80;;;;;;4991150;28;20026;-66
2021/03/20 04:28:06;;;;;;;41.15;23.73;;;76.90;1894.40;;;;;;4991237;28;20031;-66
2021/03/20 04:30:34;;;;;;;41.50;25.88;;;76.90;1894.40;;;;;;4991002;28;20034;-66
2021/03/20 04:33:19;;;;;;;39.60;24.88;;;77.30;1843.20;;;;;;4991078;28;20049;-66
2021/03/20 04:35:52;;;;;;;30.42;21.40;;;77.40;1843.20;;;;;;4990860;28;20503;-66
2021/03/20 04:38:19;;;;;;;38.70;24.67;;;77.30;1868.80;;;;;;4990784;28;20073;-65
2021/03/20 04:40:49;;;;;;;51.40;26.35;;;77.30;1843.20;;;;;;4990750;28;20553;-66
2021/03/20 04:43:17;;;;;;;43.72;26.23;;;;;;;;;;4977043;28;20026;-67
2021/03/20 04:45:50;;;;;;;39.63;25.80;;;102.40;1817.60;;;;;;4991035;28;20038;-66
2021/03/20 04:48:21;;;;;;;43.30;27.35;;;;;;;;;;4990795;28;20150;-67
2021/03/20 04:50:48;;;;;;;44.13;28.95;;;;;;;;;;4990935;28;20026;-68
2021/03/20 04:53:15;;;;;;;43.85;29.55;;;;;;;;;;4974480;28;20077;-63
2021/03/20 04:55:41;;;;;;;46.30;29.38;;;77.40;2227.20;;;;;;4991020;28;20508;-63
2021/03/20 04:58:21;;;;;;;49.58;31.92;;;77.20;1868.80;;;;;;4995278;28;20030;-63
2021/03/20 05:00:49;;;;;;;51.88;32.45;;;;;;;;;;5076355;28;20360;-64
2021/03/20 05:03:15;;;;;;;59.70;36.28;;;;;;;;;;5076219;28;20027;-62
2021/03/20 05:05:51;;;;;;;61.70;37.25;;;;;;;;;;5058334;28;20108;-63
2021/03/20 05:08:20;;;;;;;73.20;34.05;;;;;;;;;;5076557;28;20067;-63
2021/03/20 05:10:46;;;;;;;59.92;34.47;;;;;;;;;;5049644;28;20024;-63
2021/03/20 05:13:25;;;;;;;57.85;36.70;;;;;;;;;;5076298;28;20024;-63
2021/03/20 05:15:51;;;;;;;61.80;36.47;;;;;;;;;;5049055;28;20044;-63
2021/03/20 05:18:17;;;;;;;66.63;39.33;;;;;;;;;;5057757;28;20560;-64
2021/03/20 05:20:44;;;;;;;51.03;31.30;;;;;;;;;;5075695;28;20036;-63
2021/03/20 05:23:11;;;;;;;47.00;30.10;;;;;;;;;;5075748;28;20021;-63
2021/03/20 05:25:36;;;;;;;41.22;27.02;;;77.20;1817.60;;;;;;5057785;28;20032;-62
2021/03/20 05:28:02;;;;;;;55.03;32.70;;;77.20;2227.20;;;;;;5075932;28;20020;-63
2021/03/20 05:30:28;;;;;;;51.13;31.75;;;;;;;;;;5075635;28;20078;-63
2021/03/20 05:32:55;;;;;;;44.08;29.15;;;102.50;1740.80;;;;;;5076012;28;20031;-62
2021/03/20 05:35:25;;;;;;;68.32;42.10;;;102.60;1920.00;;;;;;5075704;28;20097;-63
2021/03/20 05:37:51;;;;;;;68.90;42.80;;;;;;;;;;5075523;28;20023;-63
2021/03/20 05:40:21;;;;;;;68.25;39.28;;;;;;;;;;5075180;28;20041;-63
2021/03/20 05:42:58;;;;;;;83.85;42.90;;;;;;;;;;5061307;28;20017;-63
2021/03/20 05:45:44;;;;;;;76.78;44.88;;;;;;;;;;5075542;28;20185;-63
2021/03/20 05:48:10;;;;;;;100.75;56.58;;;;;;;;;;5075338;28;20039;-67
2021/03/20 05:50:57;;;;;;;187.27;100.43;;;;;;;;;;5075272;28;20024;-64
2021/03/20 05:53:47;;;;;;;118.40;74.95;;;102.40;1817.60;;;;;;5075105;28;20036;-65
2021/03/20 05:56:47;;;;;;;119.03;75.88;;;77.70;1843.20;;;;;;5075304;28;20036;-65
2021/03/20 05:59:37;;;;;;;126.28;79.88;;;77.50;1843.20;;;;;;4993716;28;20402;-65
2021/03/20 06:02:23;;;;;;;117.85;76.10;;;77.60;1843.20;;;;;;4993679;28;20381;-66
2021/03/20 06:05:18;;;;;;;104.95;65.78;;;77.70;1843.20;;;;;;4993836;28;20042;-66
2021/03/20 06:08:02;;;;;;;108.82;61.55;;;77.60;1868.80;;;;;;4972508;28;20509;-66
2021/03/20 06:10:31;;;;;;;97.18;59.53;;;102.40;1817.60;;;;;;4992515;28;20053;-66
2021/03/20 06:13:06;;;;;;;93.45;58.97;;;;;;;;;;4993572;28;20022;-67
2021/03/20 06:15:37;;;;;;;80.35;48.97;;;102.70;1792.00;;;;;;4993344;28;20096;-65
2021/03/20 06:18:21;;;;;;;76.03;48.15;;;77.70;1817.60;;;;;;4993680;28;20176;-66
2021/03/20 06:21:20;;;;;;;78.07;51.03;;;77.60;1843.20;;;;;;4993304;28;20109;-66
2021/03/20 06:24:10;;;;;;;61.97;40.55;;;77.60;1868.80;;;;;;4935225;29;20050;-66
2021/03/20 06:26:39;;;;;;;63.20;40.85;;;102.60;1792.00;;;;;;4935438;29;20032;-63
2021/03/20 06:29:17;;;;;;;79.03;48.28;;;102.90;1792.00;;;;;;4935273;29;20024;-63
2021/03/20 06:31:45;;;;;;;76.18;48.00;;;102.70;1792.00;;;;;;4935426;29;20161;-63
2021/03/20 06:34:16;;;;;;;79.35;47.58;;;102.50;1792.00;;;;;;4935160;29;20040;-63
2021/03/20 06:36:50;;;;;;;82.68;53.03;;;102.80;1792.00;;;;;;4995382;28;20038;-63
2021/03/20 06:39:26;;;;;;;75.32;49.13;;;102.90;1792.00;;;;;;5012083;28;20076;-64
2021/03/20 06:42:06;;;;;;;73.65;47.05;;;102.60;1843.20;;;;;;5012488;28;20414;-65
2021/03/20 06:44:44;;;;;;;86.35;51.22;;;102.60;1817.60;;;;;;5012322;28;20133;-64
2021/03/20 06:47:18;;;;;;;99.28;61.92;;;102.50;1817.60;;;;;;5012158;28;20028;-65
2021/03/20 06:49:59;;;;;;;110.47;69.60;;;;;;;;;;5012195;28;20037;-63
2021/03/20 06:52:25;;;;;;;77.38;51.22;;;;;;;;;;5012194;28;20030;-64
2021/03/20 06:55:00;;;;;;;127.72;84.70;;;128.20;1766.40;;;;;;5011981;28;20385;-64
2021/03/20 06:57:27;;;;;;;137.45;90.00;;;128.30;1740.80;;;;;;5012134;28;20080;-64
2021/03/20 06:59:54;;;;;;;161.10;100.53;;;128.70;1740.80;;;;;;5021835;28;20056;-64
2021/03/20 07:02:40;;;;;;;136.23;85.22;;;128.90;1715.20;;;;;;5056256;28;20040;-65
2021/03/20 07:05:20;;;;;;;111.57;69.55;;;153.80;1664.00;;;;;;5073636;28;20537;-63
2021/03/20 07:08:07;;;;;;;107.32;69.57;;;154.00;1664.00;;;;;;5073826;28;20028;-63
2021/03/20 07:10:59;;;;;;;109.57;66.93;;;154.10;1638.40;;;;;;5073703;28;20057;-65
2021/03/20 07:13:30;;;;;;;110.03;69.20;;;154.10;1612.80;;;;;;5070071;28;20036;-63
2021/03/20 07:16:04;;;;;;;89.68;57.22;;;154.20;1612.80;;;;;;5073698;28;20021;-65
2021/03/20 07:18:30;;;;;;;95.95;58.83;;;;;;;;;;5055486;28;20157;-65
2021/03/20 07:20:56;;;;;;;87.50;55.53;;;;;;;;;;5073410;28;20360;-66
2021/03/20 07:23:22;;;;;;;84.72;54.03;;;;;;;;;;5073374;28;20020;-66
2021/03/20 07:25:51;;;;;;;91.88;57.10;;;;;;;;;;5073181;28;20463;-67
2021/03/20 07:28:19;;;;;;;114.80;69.28;;;;;;;;;;5073621;28;20119;-67
2021/03/20 07:30:53;;;;;;;131.85;87.20;;;;;;;;;;5072968;28;20068;-67
2021/03/20 07:33:47;;;;;;;127.32;80.63;;;;;;;;;;5073465;28;20025;-64
2021/03/20 07:36:21;;;;;;;122.32;80.82;;;153.60;1689.60;;;;;;5063826;28;20112;-64
2021/03/20 07:39:12;;;;;;;162.85;99.40;;;154.20;1664.00;;;;;;5072948;28;20048;-64
2021/03/20 07:41:48;;;;;;;148.50;99.22;;;154.00;1689.60;;;;;;5045482;28;20111;-69
2021/03/20 07:44:14;;;;;;;144.93;94.72;;;153.60;1715.20;;;;;;5065188;28;20029;-65
2021/03/20 07:46:40;;;;;;;151.43;103.18;;;153.60;1766.40;;;;;;5054942;28;20074;-64
2021/03/20 07:49:31;;;;;;;141.30;87.85;;;154.10;1689.60;;;;;;5073039;28;20086;-64
2021/03/20 07:52:04;;;;;;;121.38;79.38;;;179.20;1664.00;;;;;;5072690;28;20382;-65
2021/03/20 07:54:35;;;;;;;131.43;90.38;;;179.40;1638.40;;;;;;5072656;28;20112;-64
2021/03/20 07:57:19;;;;;;;107.17;69.70;;;;;;;;;;5072826;28;20024;-66
2021/03/20 07:59:49;;;;;;;96.80;59.75;;;;;;;;;;5072600;28;20037;-64
2021/03/20 08:02:28;;;;;;;99.07;58.80;;;;;;;;;;5039217;28;20021;-66
2021/03/20 08:04:54;;;;;;;112.85;76.75;;;;;;;;;;5066602;28;20046;-65
2021/03/20 08:07:43;;;;;;;77.95;55.55;;;180.10;1894.40;;;;;;5054526;28;20028;-65
2021/03/20 08:10:24;;;;;;;82.70;52.72;;;179.50;1638.40;;;;;;5072937;28;20028;-68
2021/03/20 08:13:09;;;;;;;87.72;61.08;;;179.60;1638.40;;;;;;5072568;28;20468;-68
2021/03/20 08:15:37;;;;;;;94.43;64.63;;;;;;;;;;5072922;28;20029;-67
2021/03/20 08:18:12;;;;;;;92.25;63.70;;;;;;;;;;5072756;28;20032;-68
2021/03/20 08:20:42;;;;;;;102.25;59.45;;;205.30;1561.60;;;;;;5072347;28;20033;-68
2021/03/20 08:23:19;;;;;;;80.70;56.33;;;230.40;1510.40;;;;;;5072572;28;20131;-68
2021/03/20 08:25:58;;;;;;;79.60;53.60;;;230.70;1894.40;;;;;;5072352;28;20028;-67
2021/03/20 08:28:53;;;;;;;85.95;56.15;;;;;;;;;;5072578;28;20020;-67
2021/03/20 08:31:31;;;;;;;63.40;43.97;;;;;;;;;;4974641;28;20449;-68
2021/03/20 08:34:16;;;;;;;58.15;41.15;;;;;;;;;;4990570;28;20038;-68
2021/03/20 08:37:00;;;;;;;53.72;37.17;;;256.40;1280.00;;;;;;4991133;28;20058;-67
2021/03/20 08:39:52;;;;;;;64.45;41.80;;;256.30;1280.00;;;;;;4990567;28;20061;-68
2021/03/20 08:42:37;;;;;;;50.95;36.20;;;256.40;1280.00;;;;;;4981014;28;20046;-67
2021/03/20 08:45:20;;;;;;;76.55;45.65;;;256.40;1254.40;;;;;;4989788;28;20029;-68
2021/03/20 08:48:09;;;;;;;78.63;41.88;;;256.80;1280.00;;;;;;4990878;28;20489;-68
2021/03/20 08:50:43;;;;;;;42.30;23.58;;;281.80;1254.40;;;;;;4990848;28;20540;-68
2021/03/20 08:53:22;;;;;;;35.30;24.65;;;281.90;1254.40;;;;;;4990538;28;20049;-69
2021/03/20 08:56:13;;;;;;;37.70;26.95;;;282.00;1228.80;;;;;;4990840;28;20034;-68
2021/03/20 08:59:02;;;;;;;41.72;31.90;;;282.00;1228.80;;;;;;4932834;29;20404;-67
2021/03/20 09:01:33;;;;;;;37.70;25.65;;;282.30;1203.20;;;;;;4932904;29;20541;-68
2021/03/20 09:04:05;;;;;;;42.22;29.88;;;282.50;1177.60;;;;;;4932853;29;20042;-67
2021/03/20 09:06:54;;;;;;;69.28;43.00;;;282.30;1228.80;;;;;;4933042;28;20039;-67
2021/03/20 09:09:31;;;;;;;77.75;45.13;;;307.60;1177.60;;;;;;4913445;29;20066;-69
2021/03/20 09:12:12;;;;;;;64.85;38.10;;;307.80;1177.60;;;;;;4913624;29;20475;-67
2021/03/20 09:14:40;;;;;;;116.28;67.75;;;308.00;1177.60;;;;;;4913552;29;20036;-65
2021/03/20 09:17:14;;;;;;;61.47;41.40;;;308.10;1177.60;;;;;;4900022;29;20092;-66
2021/03/20 09:19:50;;;;;;;63.08;37.97;;;307.80;1177.60;;;;;;4913508;29;20554;-67
2021/03/20 09:22:19;;;;;;;94.63;55.67;;;332.90;1152.00;;;;;;4913416;29;20119;-66
2021/03/20 09:25:06;;;;;;;52.08;34.60;;;333.10;1126.40;;;;;;4913531;29;20032;-68
2021/03/20 09:28:10;;;;;;;39.03;28.50;;;333.20;1126.40;;;;;;4913616;29;20047;-68
2021/03/20 09:30:43;;;;;;;54.55;35.47;;;333.60;1075.20;;;;;;4913517;29;20039;-68
2021/03/20 09:33:29;;;;;;;52.58;34.95;;;333.60;1100.80;;;;;;4913451;29;20083;-68
2021/03/20 09:36:06;;;;;;;46.20;29.00;;;358.80;1049.60;;;;;;4947848;28;20027;-68
2021/03/20 09:38:35;;;;;;;40.25;28.25;;;409.60;972.80;;;;;;4970491;28;20453;-66
2021/03/20 09:41:03;;;;;;;36.13;23.67;;;461.40;793.60;;;;;;4970486;28;20049;-66
2021/03/20 09:43:37;;;;;;;29.38;21.92;;;487.30;716.80;;;;;;4970704;28;20038;-66
2021/03/20 09:46:40;;;;;;;34.45;24.92;;;537.80;691.20;;;;;;5003041;28;20041;-66
2021/03/20 09:49:06;;;;;;;29.42;22.70;;;537.80;665.60;;;;;;5035669;28;20021;-66
2021/03/20 09:51:50;;;;;;;35.58;28.42;;;563.90;614.40;;;;;;5055517;28;20032;-67
2021/03/20 09:54:22;;;;;;;31.50;21.13;;;589.30;588.80;;;;;;5054786;28;20017;-66
2021/03/20 09:56:49;;;;;;;30.85;24.13;;;589.40;563.20;;;;;;5055031;28;20013;-66
2021/03/20 09:59:31;;;;;;;44.92;33.35;;;614.70;537.60;;;;;;5054880;28;20028;-66
2021/03/20 10:02:01;;;;;;;30.30;20.98;;;615.10;512.00;;;;;;5055206;28;20029;-67
2021/03/20 10:04:51;;;;;;;32.80;20.80;;;614.70;563.20;;;;;;5055000;28;20021;-67
2021/03/20 10:07:30;;;;;;;28.58;23.77;;;640.50;486.40;;;;;;5053057;28;20484;-66
2021/03/20 10:10:11;;;;;;;30.38;22.40;;;665.90;486.40;;;;;;5031694;28;20025;-65
2021/03/20 10:12:46;;;;;;;39.03;30.73;;;665.90;512.00;;;;;;5028299;28;20022;-66
2021/03/20 10:17:56;;;;;;;20.80;18.42;;;640.70;460.80;;;;;;5034013;28;20029;-65
2021/03/20 10:20:27;;;;;;;25.05;20.50;;;614.90;486.40;;;;;;5024992;28;20042;-65
2021/03/20 10:22:59;;;;;;;38.88;28.90;;;614.80;512.00;;;;;;5033721;28;20037;-66
2021/03/20 10:25:25;;;;;;;28.05;19.27;;;589.60;537.60;;;;;;5033945;28;20034;-66
2021/03/20 10:28:01;;;;;;;52.42;30.92;;;589.10;537.60;;;;;;5033722;28;20087;-66
2021/03/20 10:30:30;;;;;;;51.60;33.63;;;589.40;537.60;;;;;;5033556;28;20026;-65
2021/03/20 10:33:28;;;;;;;25.90;19.40;;;589.10;537.60;;;;;;5033680;28;20017;-65
2021/03/20 10:36:29;;;;;;;22.50;19.35;;;589.20;512.00;;;;;;5011582;28;20235;-67
2021/03/20 10:38:54;;;;;;;18.25;15.73;;;588.90;512.00;;;;;;4952372;28;20059;-66
2021/03/20 10:41:36;;;;;;;23.95;17.83;;;538.00;563.20;;;;;;4952813;28;20082;-66
2021/03/20 10:44:13;;;;;;;;;;;538.10;563.20;;;;;;4953910;29;20035;-65
2021/03/20 10:46:40;;;;;;;107.53;64.93;;;538.40;563.20;;;;;;4953322;29;19960;-65
2021/03/20 10:49:21;;;;;;;37.53;27.40;;;563.60;563.20;;;;;;4953225;29;20042;-66
2021/03/20 10:51:48;;;;;;;;;;;564.10;563.20;;;;;;4953674;29;20047;-66
2021/03/20 10:54:41;;;;;;;28.23;22.52;;;538.00;563.20;;;;;;4953254;29;19939;-66
2021/03/20 10:57:16;;;;;;;63.50;39.28;;;512.90;563.20;;;;;;4952604;29;20034;-65
2021/03/20 10:59:47;;;;;;;95.13;62.63;;;538.10;614.40;;;;;;4953139;29;20047;-65
2021/03/20 11:02:30;;;;;;;41.50;25.80;;;538.50;537.60;;;;;;4953753;28;20032;-66
2021/03/20 11:05:31;;;;;;;41.70;30.75;;;563.60;563.20;;;;;;4953142;29;20078;-67
2021/03/20 11:07:58;;;;;;;27.13;20.35;;;563.90;537.60;;;;;;4933584;28;20028;-68
2021/03/20 11:10:35;;;;;;;18.45;14.38;;;563.60;563.20;;;;;;4936022;28;20199;-66
2021/03/20 11:13:08;;;;;;;41.63;31.73;;;538.50;563.20;;;;;;4983565;28;20110;-66
2021/03/20 11:15:37;;;;;;;64.32;42.58;;;538.20;563.20;;;;;;4985107;28;20517;-69
2021/03/20 11:18:14;;;;;;;47.95;32.55;;;512.70;588.80;;;;;;4972446;28;20145;-71
2021/03/20 11:20:42;;;;;;;59.05;35.33;;;512.60;588.80;;;;;;4972375;28;20517;-71
2021/03/20 11:23:45;;;;;;;39.85;26.23;;;512.30;640.00;;;;;;4972420;28;20089;-69
2021/03/20 11:26:30;;;;;;;57.20;32.92;;;487.30;640.00;;;;;;4958652;28;20042;-68
2021/03/20 11:29:00;;;;;;;46.83;33.47;;;461.40;691.20;;;;;;4972359;28;20034;-69
2021/03/20 11:31:29;;;;;;;43.22;29.73;;;460.80;742.40;;;;;;4972526;28;20038;-69
2021/03/20 11:33:55;;;;;;;26.25;16.75;;;435.60;716.80;;;;;;4972301;28;20038;-68
2021/03/20 11:36:25;;;;;;;30.52;20.60;;;460.90;691.20;;;;;;4972223;28;20035;-69
2021/03/20 11:38:51;;;;;;;36.88;26.45;;;460.90;691.20;;;;;;4972085;28;20047;-69
2021/03/20 11:41:36;;;;;;;35.13;24.42;;;460.90;716.80;;;;;;4971801;28;20118;-72
2021/03/20 11:44:22;;;;;;;29.75;21.60;;;435.60;742.40;;;;;;5006772;28;20033;-70
2021/03/20 11:47:13;;;;;;;46.00;27.55;;;410.50;768.00;;;;;;5052106;28;20035;-70
2021/03/20 11:49:50;;;;;;;40.85;30.10;;;410.40;793.60;;;;;;5052611;28;20025;-69
2021/03/20 11:52:26;;;;;;;45.08;26.90;;;410.10;793.60;;;;;;5053133;28;20032;-68
2021/03/20 11:55:06;;;;;;;53.58;31.10;;;409.60;819.20;;;;;;5051451;28;20060;-68
2021/03/20 11:57:38;;;;;;;44.25;31.27;;;409.80;819.20;;;;;;5052729;28;20032;-68
2021/03/20 12:00:28;;;;;;;40.55;25.60;;;384.80;819.20;;;;;;5052866;28;20476;-73
2021/03/20 12:02:54;;;;;;;34.88;24.17;;;384.60;819.20;;;;;;5052823;28;20387;-73
2021/03/20 12:05:38;;;;;;;34.67;23.42;;;384.10;870.40;;;;;;5051498;28;20021;-74
2021/03/20 12:08:19;;;;;;;36.30;25.27;;;359.30;870.40;;;;;;5135567;22;20441;-68
2021/03/20 12:10:57;;;;;;;;;;;384.30;793.60;;;;;;4993890;28;20077;-74
2021/03/20 12:13:43;;;;;;;34.95;22.15;;;384.40;793.60;;;;;;4993536;28;19968;-73
2021/03/20 12:16:21;;;;;;;29.05;20.75;;;384.70;793.60;;;;;;4993295;28;20010;-73
2021/03/20 12:18:47;;;;;;;40.20;24.17;;;384.30;793.60;;;;;;4993222;28;20194;-70
2021/03/20 12:21:13;;;;;;;47.72;28.65;;;384.20;793.60;;;;;;4993108;28;20109;-72
2021/03/20 12:23:52;;;;;;;42.47;35.03;;;384.10;819.20;;;;;;4992918;28;20026;-72
2021/03/20 12:26:19;;;;;;;32.25;22.40;;;384.00;844.80;;;;;;4993522;28;20030;-73
2021/03/20 12:28:47;;;;;;;37.45;20.33;;;359.30;819.20;;;;;;4993078;28;20053;-71
2021/03/20 12:31:17;;;;;;;35.92;25.17;;;359.20;844.80;;;;;;4993224;28;20015;-71
2021/03/20 12:33:51;;;;;;;29.60;22.20;;;359.30;844.80;;;;;;4993050;28;20022;-73
2021/03/20 12:36:37;;;;;;;37.40;23.73;;;359.00;844.80;;;;;;4993182;28;20097;-71
2021/03/20 12:39:10;;;;;;;29.13;21.80;;;358.60;870.40;;;;;;4993040;28;20054;-73
2021/03/20 12:41:36;;;;;;;23.73;17.70;;;358.60;870.40;;;;;;4992956;28;20033;-72
2021/03/20 12:44:22;;;;;;;41.65;29.88;;;333.70;819.20;;;;;;4993069;28;20109;-69
2021/03/20 12:46:52;;;;;;;32.42;22.88;;;333.50;896.00;;;;;;4992910;28;20026;-68
2021/03/20 12:49:23;;;;;;;35.10;25.05;;;333.40;896.00;;;;;;4992952;28;20604;-67
2021/03/20 12:51:58;;;;;;;43.67;31.27;;;333.10;896.00;;;;;;4993160;28;20094;-67
2021/03/20 12:54:30;;;;;;;51.55;34.33;;;333.00;947.20;;;;;;4993146;28;20081;-67
2021/03/20 12:56:56;;;;;;;41.95;26.83;;;332.90;921.60;;;;;;4992653;28;20045;-67
2021/03/20 12:59:21;;;;;;;32.97;24.80;;;333.00;921.60;;;;;;4992908;28;20484;-66
2021/03/20 13:01:47;;;;;;;49.22;32.92;;;333.00;921.60;;;;;;4992859;28;20078;-66
2021/03/20 13:04:15;;;;;;;53.97;33.17;;;332.80;921.60;;;;;;4992820;28;20049;-67
2021/03/20 13:06:41;;;;;;;82.88;52.75;;;308.10;896.00;;;;;;4992956;28;20093;-66